sensor_id;sensor_type;location;lat;lon;timestamp;pressure;altitude;pressure_sealevel;temperature;humidity
49044;BME280;34860;48.066;14.124;2024-01-16T00:02:02;95720.28;;;-1.38;70.91
49044;BME280;34860;48.066;14.124;2024-01-16T00:04:53;95724.56;;;-1.41;70.77
49044;BME280;34860;48.066;14.124;2024-01-16T00:07:45;95717.56;;;-1.42;70.72
49044;BME280;34860;48.066;14.124;2024-01-16T00:10:36;95726.88;;;-1.43;70.70
49044;BME280;34860;48.066;14.124;2024-01-16T00:13:29;95724.16;;;-1.43;70.76
49044;BME280;34860;48.066;14.124;2024-01-16T00:16:22;95731.56;;;-1.40;70.69
49044;BME280;34860;48.066;14.124;2024-01-16T00:19:12;95738.19;;;-1.37;70.58
49044;BME280;34860;48.066;14.124;2024-01-16T00:22:06;95745.22;;;-1.36;70.45
49044;BME280;34860;48.066;14.124;2024-01-16T00:24:59;95747.19;;;-1.33;70.62
49044;BME280;34860;48.066;14.124;2024-01-16T00:27:50;95744.44;;;-1.33;70.53
49044;BME280;34860;48.066;14.124;2024-01-16T00:30:46;95747.94;;;-1.33;70.46
49044;BME280;34860;48.066;14.124;2024-01-16T00:33:38;95764.34;;;-1.29;70.57
49044;BME280;34860;48.066;14.124;2024-01-16T00:36:29;95761.63;;;-1.29;70.61
49044;BME280;34860;48.066;14.124;2024-01-16T00:39:22;95761.63;;;-1.29;70.52
49044;BME280;34860;48.066;14.124;2024-01-16T00:42:13;95762.00;;;-1.27;70.49
49044;BME280;34860;48.066;14.124;2024-01-16T00:45:07;95772.94;;;-1.23;70.36
49044;BME280;34860;48.066;14.124;2024-01-16T00:47:58;95766.69;;;-1.24;70.45
49044;BME280;34860;48.066;14.124;2024-01-16T00:50:48;95784.59;;;-1.23;70.30
49044;BME280;34860;48.066;14.124;2024-01-16T00:53:43;95784.59;;;-1.23;70.21
49044;BME280;34860;48.066;14.124;2024-01-16T00:56:41;95788.91;;;-1.22;70.25
49044;BME280;34860;48.066;14.124;2024-01-16T00:59:33;95797.06;;;-1.22;70.34
49044;BME280;34860;48.066;14.124;2024-01-16T01:02:24;95800.56;;;-1.21;70.49
49044;BME280;34860;48.066;14.124;2024-01-16T01:05:17;95803.69;;;-1.23;70.14
49044;BME280;34860;48.066;14.124;2024-01-16T01:08:09;95805.25;;;-1.25;70.27
49044;BME280;34860;48.066;14.124;2024-01-16T01:11:02;95808.75;;;-1.25;70.13
49044;BME280;34860;48.066;14.124;2024-01-16T01:13:53;95807.97;;;-1.29;70.08
49044;BME280;34860;48.066;14.124;2024-01-16T01:16:43;95811.06;;;-1.27;70.20
49044;BME280;34860;48.066;14.124;2024-01-16T01:19:36;95810.25;;;-1.31;70.18
49044;BME280;34860;48.066;14.124;2024-01-16T01:22:30;95811.84;;;-1.30;70.05
49044;BME280;34860;48.066;14.124;2024-01-16T01:25:21;95818.44;;;-1.31;70.09
49044;BME280;34860;48.066;14.124;2024-01-16T01:28:12;95814.16;;;-1.32;70.13
49044;BME280;34860;48.066;14.124;2024-01-16T01:31:05;95825.84;;;-1.32;69.95
49044;BME280;34860;48.066;14.124;2024-01-16T01:34:00;95827.41;;;-1.31;69.93
49044;BME280;34860;48.066;14.124;2024-01-16T01:36:51;95829.72;;;-1.33;70.02
49044;BME280;34860;48.066;14.124;2024-01-16T01:39:43;95845.69;;;-1.31;69.91
49044;BME280;34860;48.066;14.124;2024-01-16T01:42:33;95844.53;;;-1.34;69.89
49044;BME280;34860;48.066;14.124;2024-01-16T01:45:27;95846.44;;;-1.34;69.94
49044;BME280;34860;48.066;14.124;2024-01-16T01:48:21;95840.22;;;-1.38;69.83
49044;BME280;34860;48.066;14.124;2024-01-16T01:51:13;95848.75;;;-1.40;69.79
49044;BME280;34860;48.066;14.124;2024-01-16T01:54:04;95842.50;;;-1.44;69.97
49044;BME280;34860;48.066;14.124;2024-01-16T01:56:58;95847.16;;;-1.44;69.79
49044;BME280;34860;48.066;14.124;2024-01-16T01:59:49;95848.31;;;-1.46;69.86
49044;BME280;34860;48.066;14.124;2024-01-16T02:02:43;95861.16;;;-1.46;69.82
49044;BME280;34860;48.066;14.124;2024-01-16T02:05:36;95849.50;;;-1.47;69.95
49044;BME280;34860;48.066;14.124;2024-01-16T02:08:35;95861.16;;;-1.46;69.74
49044;BME280;34860;48.066;14.124;2024-01-16T02:11:28;95856.09;;;-1.48;69.88
49044;BME280;34860;48.066;14.124;2024-01-16T02:14:28;95856.09;;;-1.48;69.95
49044;BME280;34860;48.066;14.124;2024-01-16T02:17:20;95861.56;;;-1.48;69.85
49044;BME280;34860;48.066;14.124;2024-01-16T02:20:12;95861.56;;;-1.48;69.69
49044;BME280;34860;48.066;14.124;2024-01-16T02:23:03;95859.97;;;-1.49;69.80
49044;BME280;34860;48.066;14.124;2024-01-16T02:26:01;95865.81;;;-1.50;69.84
49044;BME280;34860;48.066;14.124;2024-01-16T02:28:55;95867.75;;;-1.51;69.76
49044;BME280;34860;48.066;14.124;2024-01-16T02:31:49;95868.91;;;-1.52;69.67
49044;BME280;34860;48.066;14.124;2024-01-16T02:34:39;95880.59;;;-1.51;69.73
49044;BME280;34860;48.066;14.124;2024-01-16T02:37:30;95889.94;;;-1.52;69.77
49044;BME280;34860;48.066;14.124;2024-01-16T02:40:23;95884.84;;;-1.54;69.65
49044;BME280;34860;48.066;14.124;2024-01-16T02:43:15;95893.06;;;-1.50;69.84
49044;BME280;34860;48.066;14.124;2024-01-16T02:46:07;95883.28;;;-1.55;69.69
49044;BME280;34860;48.066;14.124;2024-01-16T02:48:59;95878.63;;;-1.54;69.66
49044;BME280;34860;48.066;14.124;2024-01-16T02:51:50;95874.72;;;-1.57;69.44
49044;BME280;34860;48.066;14.124;2024-01-16T02:54:42;95884.44;;;-1.59;69.56
49044;BME280;34860;48.066;14.124;2024-01-16T02:57:33;95890.25;;;-1.61;69.59
49044;BME280;34860;48.066;14.124;2024-01-16T03:00:31;95896.84;;;-1.62;69.54
49044;BME280;34860;48.066;14.124;2024-01-16T03:03:22;95897.59;;;-1.65;69.70
49044;BME280;34860;48.066;14.124;2024-01-16T03:06:24;95900.34;;;-1.65;69.64
49044;BME280;34860;48.066;14.124;2024-01-16T03:09:14;95898.00;;;-1.63;69.58
49044;BME280;34860;48.066;14.124;2024-01-16T03:12:06;95901.09;;;-1.65;69.61
49044;BME280;34860;48.066;14.124;2024-01-16T03:14:58;95906.56;;;-1.65;69.47
49044;BME280;34860;48.066;14.124;2024-01-16T03:17:50;95915.94;;;-1.62;69.64
49044;BME280;34860;48.066;14.124;2024-01-16T03:20:42;95906.56;;;-1.65;69.57
49044;BME280;34860;48.066;14.124;2024-01-16T03:23:32;95929.09;;;-1.68;69.53
49044;BME280;34860;48.066;14.124;2024-01-16T03:26:25;95919.78;;;-1.67;69.66
49044;BME280;34860;48.066;14.124;2024-01-16T03:29:16;95931.81;;;-1.68;69.57
49044;BME280;34860;48.066;14.124;2024-01-16T03:32:09;95936.91;;;-1.66;69.63
49044;BME280;34860;48.066;14.124;2024-01-16T03:35:01;95938.09;;;-1.63;69.48
49044;BME280;34860;48.066;14.124;2024-01-16T03:37:51;95930.69;;;-1.63;69.47
49044;BME280;34860;48.066;14.124;2024-01-16T03:40:55;95946.28;;;-1.60;69.44
49044;BME280;34860;48.066;14.124;2024-01-16T03:43:48;95943.16;;;-1.62;69.38
49044;BME280;34860;48.066;14.124;2024-01-16T03:46:39;95938.13;;;-1.60;69.52
49044;BME280;34860;48.066;14.124;2024-01-16T03:49:30;95949.81;;;-1.59;69.38
49044;BME280;34860;48.066;14.124;2024-01-16T03:52:23;95948.66;;;-1.58;69.24
49044;BME280;34860;48.066;14.124;2024-01-16T03:55:14;95948.28;;;-1.57;69.33
49044;BME280;34860;48.066;14.124;2024-01-16T03:58:10;95941.28;;;-1.58;69.15
49044;BME280;34860;48.066;14.124;2024-01-16T04:01:00;95953.31;;;-1.59;69.23
49044;BME280;34860;48.066;14.124;2024-01-16T04:03:52;95956.03;;;-1.59;69.26
49044;BME280;34860;48.066;14.124;2024-01-16T04:06:44;95953.75;;;-1.53;69.19
49044;BME280;34860;48.066;14.124;2024-01-16T04:09:40;95948.66;;;-1.55;69.12
49044;BME280;34860;48.066;14.124;2024-01-16T04:12:31;95956.47;;;-1.53;69.15
49044;BME280;34860;48.066;14.124;2024-01-16T04:15:22;95965.44;;;-1.53;69.21
49044;BME280;34860;48.066;14.124;2024-01-16T04:18:12;95959.56;;;-1.55;69.03
49044;BME280;34860;48.066;14.124;2024-01-16T04:21:03;95971.28;;;-1.54;68.84
49044;BME280;34860;48.066;14.124;2024-01-16T04:23:55;95958.41;;;-1.54;69.01
49044;BME280;34860;48.066;14.124;2024-01-16T04:26:49;95960.00;;;-1.53;68.89
49044;BME280;34860;48.066;14.124;2024-01-16T04:29:41;95947.13;;;-1.56;69.08
49044;BME280;34860;48.066;14.124;2024-01-16T04:32:31;95954.09;;;-1.58;69.07
49044;BME280;34860;48.066;14.124;2024-01-16T04:35:22;95957.56;;;-1.61;69.18
49044;BME280;34860;48.066;14.124;2024-01-16T04:38:14;95956.41;;;-1.60;69.12
49044;BME280;34860;48.066;14.124;2024-01-16T04:41:06;95954.84;;;-1.61;68.99
49044;BME280;34860;48.066;14.124;2024-01-16T04:43:58;95956.03;;;-1.62;69.04
49044;BME280;34860;48.066;14.124;2024-01-16T04:46:49;95951.72;;;-1.63;69.08
49044;BME280;34860;48.066;14.124;2024-01-16T04:49:44;95953.25;;;-1.66;68.89
49044;BME280;34860;48.066;14.124;2024-01-16T04:52:41;95957.53;;;-1.65;68.91
49044;BME280;34860;48.066;14.124;2024-01-16T04:55:38;95966.53;;;-1.61;68.75
49044;BME280;34860;48.066;14.124;2024-01-16T04:58:32;95961.09;;;-1.61;68.81
49044;BME280;34860;48.066;14.124;2024-01-16T05:01:25;95966.16;;;-1.59;68.72
49044;BME280;34860;48.066;14.124;2024-01-16T05:04:16;95965.41;;;-1.56;68.60
49044;BME280;34860;48.066;14.124;2024-01-16T05:07:07;95978.66;;;-1.55;68.44
49044;BME280;34860;48.066;14.124;2024-01-16T05:09:59;95973.63;;;-1.53;68.39
49044;BME280;34860;48.066;14.124;2024-01-16T05:12:49;95977.91;;;-1.52;68.52
49044;BME280;34860;48.066;14.124;2024-01-16T05:15:40;95963.91;;;-1.50;68.46
49044;BME280;34860;48.066;14.124;2024-01-16T05:18:34;95974.06;;;-1.47;68.48
49044;BME280;34860;48.066;14.124;2024-01-16T05:21:26;95986.16;;;-1.44;68.38
49044;BME280;34860;48.066;14.124;2024-01-16T05:24:17;95986.16;;;-1.44;68.41
49044;BME280;34860;48.066;14.124;2024-01-16T05:27:08;95993.94;;;-1.43;68.44
49044;BME280;34860;48.066;14.124;2024-01-16T05:29:58;95993.59;;;-1.41;68.27
49044;BME280;34860;48.066;14.124;2024-01-16T05:32:54;95988.53;;;-1.39;68.29
49044;BME280;34860;48.066;14.124;2024-01-16T05:35:53;95983.84;;;-1.39;68.26
49044;BME280;34860;48.066;14.124;2024-01-16T05:38:46;95986.19;;;-1.37;68.23
49044;BME280;34860;48.066;14.124;2024-01-16T05:41:36;95988.19;;;-1.34;68.29
49044;BME280;34860;48.066;14.124;2024-01-16T05:44:28;95990.50;;;-1.36;68.19
49044;BME280;34860;48.066;14.124;2024-01-16T05:47:18;95994.44;;;-1.34;68.29
49044;BME280;34860;48.066;14.124;2024-01-16T05:50:11;95994.44;;;-1.34;68.28
49044;BME280;34860;48.066;14.124;2024-01-16T05:53:05;95987.78;;;-1.36;68.24
49044;BME280;34860;48.066;14.124;2024-01-16T05:55:56;95995.97;;;-1.36;68.30
49044;BME280;34860;48.066;14.124;2024-01-16T05:58:51;95994.81;;;-1.35;68.31
49044;BME280;34860;48.066;14.124;2024-01-16T06:01:46;95995.97;;;-1.36;68.23
49044;BME280;34860;48.066;14.124;2024-01-16T06:04:40;95999.84;;;-1.37;68.27
49044;BME280;34860;48.066;14.124;2024-01-16T06:07:34;95997.09;;;-1.37;68.16
49044;BME280;34860;48.066;14.124;2024-01-16T06:10:26;96011.09;;;-1.39;68.22
49044;BME280;34860;48.066;14.124;2024-01-16T06:13:24;96007.22;;;-1.38;68.08
49044;BME280;34860;48.066;14.124;2024-01-16T06:16:17;96011.16;;;-1.35;68.04
49044;BME280;34860;48.066;14.124;2024-01-16T06:19:07;96012.34;;;-1.33;67.99
49044;BME280;34860;48.066;14.124;2024-01-16T06:21:59;96014.28;;;-1.33;67.98
49044;BME280;34860;48.066;14.124;2024-01-16T06:24:50;96024.41;;;-1.34;67.89
49044;BME280;34860;48.066;14.124;2024-01-16T06:27:42;96031.78;;;-1.34;67.92
49044;BME280;34860;48.066;14.124;2024-01-16T06:30:33;96022.44;;;-1.37;67.96
49044;BME280;34860;48.066;14.124;2024-01-16T06:33:25;96031.38;;;-1.36;67.88
49044;BME280;34860;48.066;14.124;2024-01-16T06:36:18;96039.56;;;-1.36;67.89
49044;BME280;34860;48.066;14.124;2024-01-16T06:39:09;96036.44;;;-1.38;67.86
49044;BME280;34860;48.066;14.124;2024-01-16T06:42:03;96048.50;;;-1.39;68.08
49044;BME280;34860;48.066;14.124;2024-01-16T06:44:57;96044.22;;;-1.40;68.13
49044;BME280;34860;48.066;14.124;2024-01-16T06:47:48;96049.25;;;-1.39;68.04
49044;BME280;34860;48.066;14.124;2024-01-16T06:50:39;96053.94;;;-1.39;67.98
49044;BME280;34860;48.066;14.124;2024-01-16T06:53:30;96050.06;;;-1.38;68.16
49044;BME280;34860;48.066;14.124;2024-01-16T06:56:20;96052.41;;;-1.37;67.97
49044;BME280;34860;48.066;14.124;2024-01-16T06:59:16;96057.44;;;-1.39;68.15
49044;BME280;34860;48.066;14.124;2024-01-16T07:02:09;96060.16;;;-1.39;68.16
49044;BME280;34860;48.066;14.124;2024-01-16T07:04:59;96057.44;;;-1.39;68.11
49044;BME280;34860;48.066;14.124;2024-01-16T07:07:50;96062.53;;;-1.37;68.08
49044;BME280;34860;48.066;14.124;2024-01-16T07:10:42;96068.03;;;-1.34;68.08
49044;BME280;34860;48.066;14.124;2024-01-16T07:13:32;96080.91;;;-1.31;68.34
49044;BME280;34860;48.066;14.124;2024-01-16T07:16:25;96078.59;;;-1.29;68.15
49044;BME280;34860;48.066;14.124;2024-01-16T07:19:17;96088.75;;;-1.25;68.20
49044;BME280;34860;48.066;14.124;2024-01-16T07:22:11;96084.88;;;-1.24;67.86
49044;BME280;34860;48.066;14.124;2024-01-16T07:25:05;96089.56;;;-1.21;67.82
49044;BME280;34860;48.066;14.124;2024-01-16T07:27:58;96090.38;;;-1.17;67.87
49044;BME280;34860;48.066;14.124;2024-01-16T07:30:52;96082.22;;;-1.14;67.79
49044;BME280;34860;48.066;14.124;2024-01-16T07:33:45;96083.44;;;-1.11;67.85
49044;BME280;34860;48.066;14.124;2024-01-16T07:36:37;96083.84;;;-1.09;68.02
49044;BME280;34860;48.066;14.124;2024-01-16T07:39:28;96086.22;;;-1.04;68.22
49044;BME280;34860;48.066;14.124;2024-01-16T07:42:22;96086.22;;;-1.04;68.00
49044;BME280;34860;48.066;14.124;2024-01-16T07:45:13;96076.50;;;-1.01;68.02
49044;BME280;34860;48.066;14.124;2024-01-16T07:48:05;96087.44;;;-0.98;68.05
49044;BME280;34860;48.066;14.124;2024-01-16T07:50:58;96078.50;;;-0.98;67.96
49044;BME280;34860;48.066;14.124;2024-01-16T07:54:04;96086.31;;;-0.93;67.97
49044;BME280;34860;48.066;14.124;2024-01-16T07:57:00;96083.97;;;-0.95;68.09
49044;BME280;34860;48.066;14.124;2024-01-16T08:00:01;96075.88;;;-0.87;67.96
49044;BME280;34860;48.066;14.124;2024-01-16T08:02:55;96093.88;;;-0.76;67.77
49044;BME280;34860;48.066;14.124;2024-01-16T08:05:50;96087.41;;;-0.60;67.63
49044;BME280;34860;48.066;14.124;2024-01-16T08:08:43;96095.28;;;-0.48;67.80
49044;BME280;34860;48.066;14.124;2024-01-16T08:11:38;96089.50;;;-0.39;67.74
49044;BME280;34860;48.066;14.124;2024-01-16T08:14:32;96096.19;;;-0.26;67.99
49044;BME280;34860;48.066;14.124;2024-01-16T08:17:25;96095.50;;;-0.19;67.74
49044;BME280;34860;48.066;14.124;2024-01-16T08:20:20;96100.91;;;-0.23;68.00
49044;BME280;34860;48.066;14.124;2024-01-16T08:23:12;96093.53;;;-0.19;68.00
49044;BME280;34860;48.066;14.124;2024-01-16T08:26:05;96092.41;;;-0.14;67.98
49044;BME280;34860;48.066;14.124;2024-01-16T08:29:01;96093.94;;;-0.13;67.97
49044;BME280;34860;48.066;14.124;2024-01-16T08:31:55;96088.84;;;-0.18;67.97
49044;BME280;34860;48.066;14.124;2024-01-16T08:34:48;96095.53;;;-0.12;68.00
49044;BME280;34860;48.066;14.124;2024-01-16T08:37:43;96100.31;;;0.06;67.95
49044;BME280;34860;48.066;14.124;2024-01-16T08:40:35;96095.75;;;0.28;68.12
49044;BME280;34860;48.066;14.124;2024-01-16T08:43:34;96097.81;;;0.60;68.01
49044;BME280;34860;48.066;14.124;2024-01-16T08:46:30;96089.28;;;0.79;67.54
49044;BME280;34860;48.066;14.124;2024-01-16T08:49:25;96090.47;;;0.82;67.57
49044;BME280;34860;48.066;14.124;2024-01-16T08:52:22;96090.47;;;0.85;67.52
49044;BME280;34860;48.066;14.124;2024-01-16T08:55:15;96090.06;;;0.83;67.45
49044;BME280;34860;48.066;14.124;2024-01-16T08:58:12;96086.97;;;0.85;67.38
49044;BME280;34860;48.066;14.124;2024-01-16T09:01:04;96082.25;;;0.82;67.53
49044;BME280;34860;48.066;14.124;2024-01-16T09:03:59;96081.88;;;0.94;67.28
49044;BME280;34860;48.066;14.124;2024-01-16T09:06:53;96080.72;;;0.92;67.21
49044;BME280;34860;48.066;14.124;2024-01-16T09:09:48;96079.09;;;0.80;67.18
49044;BME280;34860;48.066;14.124;2024-01-16T09:12:41;96077.53;;;0.64;67.47
49044;BME280;34860;48.066;14.124;2024-01-16T09:15:36;96079.03;;;0.51;67.60
49044;BME280;34860;48.066;14.124;2024-01-16T09:18:33;96071.19;;;0.42;67.73
49044;BME280;34860;48.066;14.124;2024-01-16T09:21:33;96078.63;;;0.49;67.68
49044;BME280;34860;48.066;14.124;2024-01-16T09:24:27;96074.75;;;0.53;67.36
49044;BME280;34860;48.066;14.124;2024-01-16T09:27:25;96084.91;;;0.57;67.22
49044;BME280;34860;48.066;14.124;2024-01-16T09:30:22;96081.41;;;0.63;66.87
49044;BME280;34860;48.066;14.124;2024-01-16T09:33:23;96090.44;;;0.75;66.87
49044;BME280;34860;48.066;14.124;2024-01-16T09:36:19;96092.81;;;0.87;66.63
49044;BME280;34860;48.066;14.124;2024-01-16T09:39:16;96090.50;;;1.00;66.35
49044;BME280;34860;48.066;14.124;2024-01-16T09:42:13;96092.09;;;1.15;66.20
49044;BME280;34860;48.066;14.124;2024-01-16T09:45:18;96085.81;;;1.15;66.03
49044;BME280;34860;48.066;14.124;2024-01-16T09:48:19;96081.50;;;1.06;66.28
49044;BME280;34860;48.066;14.124;2024-01-16T09:51:16;96081.50;;;1.06;66.45
49044;BME280;34860;48.066;14.124;2024-01-16T09:54:11;96076.81;;;0.96;66.45
49044;BME280;34860;48.066;14.124;2024-01-16T09:57:12;96074.09;;;0.93;66.53
49044;BME280;34860;48.066;14.124;2024-01-16T10:00:08;96076.41;;;0.90;66.56
49044;BME280;34860;48.066;14.124;2024-01-16T10:03:08;96072.13;;;0.89;66.45
49044;BME280;34860;48.066;14.124;2024-01-16T10:06:05;96075.25;;;0.88;66.48
49044;BME280;34860;48.066;14.124;2024-01-16T10:09:01;96081.09;;;0.86;66.37
49044;BME280;34860;48.066;14.124;2024-01-16T10:11:59;96076.81;;;0.93;66.33
49044;BME280;34860;48.066;14.124;2024-01-16T10:14:57;96060.41;;;1.00;65.93
49044;BME280;34860;48.066;14.124;2024-01-16T10:17:59;96059.22;;;1.04;66.03
49044;BME280;34860;48.066;14.124;2024-01-16T10:20:57;96055.72;;;1.15;66.04
49044;BME280;34860;48.066;14.124;2024-01-16T10:23:52;96051.03;;;1.37;65.65
49044;BME280;34860;48.066;14.124;2024-01-16T10:26:59;96038.91;;;1.52;65.31
49044;BME280;34860;48.066;14.124;2024-01-16T10:30:01;96043.97;;;1.68;65.21
49044;BME280;34860;48.066;14.124;2024-01-16T10:33:13;96049.81;;;1.81;64.86
49044;BME280;34860;48.066;14.124;2024-01-16T10:36:15;96041.22;;;1.68;64.97
49044;BME280;34860;48.066;14.124;2024-01-16T10:39:14;96043.19;;;1.64;65.18
49044;BME280;34860;48.066;14.124;2024-01-16T10:42:20;96044.69;;;1.87;64.59
49044;BME280;34860;48.066;14.124;2024-01-16T10:45:21;96040.78;;;1.95;64.46
49044;BME280;34860;48.066;14.124;2024-01-16T10:48:22;96036.03;;;2.03;64.07
49044;BME280;34860;48.066;14.124;2024-01-16T10:51:22;96043.09;;;2.07;64.28
49044;BME280;34860;48.066;14.124;2024-01-16T10:54:22;96032.19;;;1.78;64.65
49044;BME280;34860;48.066;14.124;2024-01-16T10:57:19;96023.63;;;1.51;65.20
49044;BME280;34860;48.066;14.124;2024-01-16T11:00:18;96028.34;;;1.29;65.80
49044;BME280;34860;48.066;14.124;2024-01-16T11:03:19;96024.03;;;1.21;65.69
49044;BME280;34860;48.066;14.124;2024-01-16T11:06:22;96026.03;;;1.31;65.61
49044;BME280;34860;48.066;14.124;2024-01-16T11:09:21;96017.78;;;1.27;65.58
49044;BME280;34860;48.066;14.124;2024-01-16T11:12:16;96018.56;;;1.24;65.64
49044;BME280;34860;48.066;14.124;2024-01-16T11:15:13;96019.00;;;1.23;65.72
49044;BME280;34860;48.066;14.124;2024-01-16T11:18:10;96009.19;;;1.33;65.63
49044;BME280;34860;48.066;14.124;2024-01-16T11:21:10;96009.19;;;1.33;65.40
49044;BME280;34860;48.066;14.124;2024-01-16T11:24:07;96003.72;;;1.36;65.42
49044;BME280;34860;48.066;14.124;2024-01-16T11:27:04;96000.19;;;1.32;65.32
49044;BME280;34860;48.066;14.124;2024-01-16T11:30:07;96002.56;;;1.37;65.29
49044;BME280;34860;48.066;14.124;2024-01-16T11:33:05;95989.66;;;1.34;65.48
49044;BME280;34860;48.066;14.124;2024-01-16T11:36:04;95992.00;;;1.36;65.49
49044;BME280;34860;48.066;14.124;2024-01-16T11:39:06;95981.44;;;1.38;65.26
49044;BME280;34860;48.066;14.124;2024-01-16T11:42:07;95986.13;;;1.37;65.26
49044;BME280;34860;48.066;14.124;2024-01-16T11:45:01;95979.06;;;1.36;65.29
49044;BME280;34860;48.066;14.124;2024-01-16T11:48:09;95978.28;;;1.50;64.98
49044;BME280;34860;48.066;14.124;2024-01-16T11:51:24;95976.31;;;1.47;65.00
49044;BME280;34860;48.066;14.124;2024-01-16T11:54:31;95975.91;;;1.45;65.21
49044;BME280;34860;48.066;14.124;2024-01-16T11:57:43;95970.84;;;1.47;65.10
49044;BME280;34860;48.066;14.124;2024-01-16T12:00:43;95964.59;;;1.50;65.08
49044;BME280;34860;48.066;14.124;2024-01-16T12:03:39;95955.94;;;1.59;64.93
49044;BME280;34860;48.066;14.124;2024-01-16T12:06:37;95954.00;;;1.56;64.81
49044;BME280;34860;48.066;14.124;2024-01-16T12:09:34;95952.44;;;1.58;64.96
49044;BME280;34860;48.066;14.124;2024-01-16T12:12:30;95946.97;;;1.55;64.89
49044;BME280;34860;48.066;14.124;2024-01-16T12:15:27;95938.75;;;1.58;64.78
49044;BME280;34860;48.066;14.124;2024-01-16T12:18:21;95929.34;;;1.63;64.72
49044;BME280;34860;48.066;14.124;2024-01-16T12:21:19;95923.06;;;1.62;64.75
49044;BME280;34860;48.066;14.124;2024-01-16T12:24:18;95926.25;;;1.54;65.00
49044;BME280;34860;48.066;14.124;2024-01-16T12:27:13;95927.41;;;1.53;65.06
49044;BME280;34860;48.066;14.124;2024-01-16T12:30:07;95916.44;;;1.53;65.08
49044;BME280;34860;48.066;14.124;2024-01-16T12:33:08;95921.53;;;1.61;65.20
49044;BME280;34860;48.066;14.124;2024-01-16T12:36:02;95915.66;;;1.59;64.91
49044;BME280;34860;48.066;14.124;2024-01-16T12:38:57;95908.63;;;1.55;64.99
49044;BME280;34860;48.066;14.124;2024-01-16T12:41:50;95903.50;;;1.64;64.88
49044;BME280;34860;48.066;14.124;2024-01-16T12:44:48;95902.72;;;1.63;64.80
49044;BME280;34860;48.066;14.124;2024-01-16T12:47:50;95899.97;;;1.67;64.89
49044;BME280;34860;48.066;14.124;2024-01-16T12:50:42;95896.03;;;1.72;64.71
49044;BME280;34860;48.066;14.124;2024-01-16T12:53:35;95892.88;;;1.80;64.72
49044;BME280;34860;48.066;14.124;2024-01-16T12:56:30;95888.97;;;1.85;64.58
49044;BME280;34860;48.066;14.124;2024-01-16T12:59:27;95886.16;;;1.92;64.64
49044;BME280;34860;48.066;14.124;2024-01-16T13:02:22;95890.03;;;2.02;64.21
49044;BME280;34860;48.066;14.124;2024-01-16T13:05:18;95885.41;;;1.92;64.58
49044;BME280;34860;48.066;14.124;2024-01-16T13:08:18;95896.09;;;2.35;64.03
49044;BME280;34860;48.066;14.124;2024-01-16T13:11:10;95892.16;;;2.36;63.98
49044;BME280;34860;48.066;14.124;2024-01-16T13:14:07;95889.53;;;2.18;64.47
49044;BME280;34860;48.066;14.124;2024-01-16T13:17:04;95890.16;;;2.44;64.22
49044;BME280;34860;48.066;14.124;2024-01-16T13:20:00;95894.63;;;2.76;63.57
49044;BME280;34860;48.066;14.124;2024-01-16T13:22:53;95896.78;;;2.99;63.29
49044;BME280;34860;48.066;14.124;2024-01-16T13:25:47;95888.56;;;2.99;63.11
49044;BME280;34860;48.066;14.124;2024-01-16T13:28:40;95894.31;;;2.66;63.87
49044;BME280;34860;48.066;14.124;2024-01-16T13:31:35;95895.63;;;2.47;64.56
49044;BME280;34860;48.066;14.124;2024-01-16T13:34:29;95892.91;;;2.44;64.83
49044;BME280;34860;48.066;14.124;2024-01-16T13:37:26;95895.19;;;2.56;64.72
49044;BME280;34860;48.066;14.124;2024-01-16T13:40:23;95887.63;;;2.67;64.35
49044;BME280;34860;48.066;14.124;2024-01-16T13:43:17;95888.13;;;2.55;64.54
49044;BME280;34860;48.066;14.124;2024-01-16T13:46:15;95884.75;;;2.33;65.02
49044;BME280;34860;48.066;14.124;2024-01-16T13:49:19;95880.19;;;2.12;65.45
49044;BME280;34860;48.066;14.124;2024-01-16T13:52:11;95874.41;;;1.95;65.80
49044;BME280;34860;48.066;14.124;2024-01-16T13:55:06;95879.19;;;1.80;65.85
49044;BME280;34860;48.066;14.124;2024-01-16T13:57:59;95870.25;;;1.69;66.00
49044;BME280;34860;48.066;14.124;2024-01-16T14:00:53;95878.09;;;1.60;66.07
49044;BME280;34860;48.066;14.124;2024-01-16T14:03:47;95874.22;;;1.50;66.12
49044;BME280;34860;48.066;14.124;2024-01-16T14:06:43;95870.34;;;1.44;66.38
49044;BME280;34860;48.066;14.124;2024-01-16T14:09:35;95877.34;;;1.45;66.21
49044;BME280;34860;48.066;14.124;2024-01-16T14:12:31;95873.47;;;1.42;66.07
49044;BME280;34860;48.066;14.124;2024-01-16T14:15:29;95874.25;;;1.39;66.17
49044;BME280;34860;48.066;14.124;2024-01-16T14:18:23;95887.16;;;1.35;66.23
49044;BME280;34860;48.066;14.124;2024-01-16T14:21:17;95884.47;;;1.28;66.23
49044;BME280;34860;48.066;14.124;2024-01-16T14:24:11;95874.28;;;1.29;66.20
49044;BME280;34860;48.066;14.124;2024-01-16T14:27:04;95871.94;;;1.27;66.16
49044;BME280;34860;48.066;14.124;2024-01-16T14:29:59;95882.13;;;1.19;65.97
49044;BME280;34860;48.066;14.124;2024-01-16T14:32:52;95882.56;;;1.07;66.20
49044;BME280;34860;48.066;14.124;2024-01-16T14:35:45;95879.00;;;1.10;65.95
49044;BME280;34860;48.066;14.124;2024-01-16T14:38:37;95889.59;;;0.97;66.17
49044;BME280;34860;48.066;14.124;2024-01-16T14:41:30;95890.78;;;1.00;66.11
49044;BME280;34860;48.066;14.124;2024-01-16T14:44:22;95879.41;;;1.16;65.40
49044;BME280;34860;48.066;14.124;2024-01-16T14:47:17;95897.75;;;1.30;64.94
49044;BME280;34860;48.066;14.124;2024-01-16T14:50:10;95879.34;;;1.34;64.66
49044;BME280;34860;48.066;14.124;2024-01-16T14:53:03;95876.28;;;1.14;64.79
49044;BME280;34860;48.066;14.124;2024-01-16T14:55:55;95870.84;;;1.03;64.96
49044;BME280;34860;48.066;14.124;2024-01-16T14:58:47;95878.66;;;1.01;64.96
49044;BME280;34860;48.066;14.124;2024-01-16T15:01:43;95874.38;;;0.93;65.26
49044;BME280;34860;48.066;14.124;2024-01-16T15:04:39;95875.56;;;0.88;64.99
49044;BME280;34860;48.066;14.124;2024-01-16T15:07:36;95870.47;;;0.79;65.28
49044;BME280;34860;48.066;14.124;2024-01-16T15:10:29;95871.25;;;0.83;65.07
49044;BME280;34860;48.066;14.124;2024-01-16T15:13:24;95887.66;;;0.83;64.68
49044;BME280;34860;48.066;14.124;2024-01-16T15:16:21;95895.06;;;0.83;64.55
49044;BME280;34860;48.066;14.124;2024-01-16T15:19:25;95889.22;;;0.81;64.36